Nibley, Utah
Current Conditions -  °F | °C
As of 5:23 AM on Sunday 23 Nov 2014 (Local Time) from KLGU Reporting Station
Light Snow Light Snow  
Wind Chill: 25°   Ceiling: 2900
Heat Index: 33°   Visibility: 6mi
Dew Point: 26°   Wind: 10mph
Humidity: 75%   Direction: 310°NW
Pressure: 30.05"   Gusts: NA
Location:  41.6898°N, 111.643°W
Report Text: KLGU 231223Z AUTO 31009KT 6SM -SN BKN029 OVC037 01/M03 A3005 RMK AO2 P0000 T00061033
Loading
Personal Weather Stations






























Interactive Weather Map New forecast layout! Learn more

10-Day Weather Forecast

Advertisements
Track Severe Weather on mobile